モスクワ/シェレメーチエヴォ の空港の天気 - METARとTAF

シェレメーチエヴォ国際空港(モスクワ) ( UUEE / SVO ) - ロシア モスクワ
飛行場実況気象(Metar)
観測時間05/25 13:00 MSK (05/25 10:00 UTC)
風向・風速南南西 7m/s
視程10km以上
天気現象
全天の4割程度の雲 雲底高度 1100m
気温19℃
湿度60%
気圧1010hPa
METARUUEE 251000Z 20007MPS 9999 SCT036CB 19/11 Q1010 R24R/190057 R24L/190057 TEMPO 20015MPS 2000 TSRA
過去の天気等 Google飛行場航空写真 Wunderground天気予報

過去48時間のMETAR

飛行場予報(TAF)
発表時間: 5/25 12:49 MSK (5/25 09:49 UTC)
予報対象時間: 25日12時 MSK ~ 26日12時 MSK
風向・風速南南西 7m/s 瞬間風速 12m/s
視程6,000m
全天の8割程度の雲 雲底高度 340m
25日12時 MSK ~ 25日21時 MSK に一時的に
風向・風速南 15m/s
視程3,100m
天気現象弱い雷雨
全天の8割程度の雲 雲底高度 180m
全天の4割程度の積乱雲 雲底高度 300m
25日21時 MSK ~ 26日12時 MSK に一時的に
天気現象弱いしゅう雨
全天の8割程度の雲 雲底高度 150m
全天の4割程度の積乱雲 雲底高度 300m
TAF AMD UUEE 250949Z 2509/2609 21007G12MPS 6000 BKN011 TX19/2512Z TN11/2603Z
TEMPO 2509/2518 19015MPS 3100 -TSRA BKN006 SCT010CB
TEMPO 2518/2609 -SHRA BKN005 SCT010CB